createdAt,value
2023-02-24T00:01:28.474Z,77.78
2023-02-24T00:04:34.694Z,103.32
2023-02-24T00:07:42.271Z,78.00
2023-02-24T00:10:49.812Z,71.07
2023-02-24T00:13:57.848Z,100.43
2023-02-24T00:17:06.056Z,73.40
2023-02-24T00:20:13.243Z,42.70
2023-02-24T00:23:18.706Z,76.10
2023-02-24T00:26:24.790Z,103.63
2023-02-24T00:29:30.065Z,44.53
2023-02-24T00:32:39.218Z,42.67
2023-02-24T00:35:47.965Z,70.55
2023-02-24T00:38:55.852Z,49.30
2023-02-24T00:42:07.312Z,33.45
2023-02-24T00:45:13.090Z,56.15
2023-02-24T00:48:20.823Z,46.83
2023-02-24T00:51:29.218Z,32.88
2023-02-24T00:54:34.026Z,22.27
2023-02-24T00:57:39.862Z,36.45
2023-02-24T01:00:47.687Z,29.90
2023-02-24T01:03:56.998Z,26.85
2023-02-24T01:07:04.078Z,26.73
2023-02-24T01:10:12.419Z,27.77
2023-02-24T01:13:14.685Z,41.67
2023-02-24T01:16:21.639Z,27.70
2023-02-24T01:19:32.101Z,29.58
2023-02-24T01:22:42.167Z,20.88
2023-02-24T01:25:49.577Z,20.80
2023-02-24T01:28:55.788Z,21.98
2023-02-24T01:32:03.029Z,12.48
2023-02-24T01:35:14.551Z,13.93
2023-02-24T01:38:23.194Z,11.30
2023-02-24T01:41:31.000Z,16.13
2023-02-24T01:44:53.901Z,13.73
2023-02-24T01:51:08.466Z,12.05
2023-02-24T01:54:15.721Z,12.48
2023-02-24T01:57:23.912Z,18.63
2023-02-24T02:00:47.394Z,11.57
2023-02-24T02:03:52.646Z,12.05
2023-02-24T02:07:02.494Z,10.77
2023-02-24T02:10:09.381Z,9.05
2023-02-24T02:13:17.716Z,9.85
2023-02-24T02:16:38.883Z,10.70
2023-02-24T02:19:59.977Z,12.60
2023-02-24T02:23:27.804Z,12.20
2023-02-24T02:26:47.506Z,6.38
2023-02-24T02:30:09.555Z,13.10
2023-02-24T02:33:33.903Z,10.77
2023-02-24T02:36:47.230Z,5.32
2023-02-24T02:39:58.980Z,9.07
2023-02-24T02:43:05.976Z,13.50
2023-02-24T02:46:14.966Z,9.40
2023-02-24T02:49:22.756Z,16.10
2023-02-24T02:52:32.827Z,11.00
2023-02-24T02:55:41.394Z,14.02
2023-02-24T02:58:49.632Z,9.25
2023-02-24T03:01:55.829Z,11.10
2023-02-24T03:05:02.570Z,6.45
2023-02-24T03:08:15.614Z,6.57
2023-02-24T03:11:23.899Z,9.43
2023-02-24T03:14:29.920Z,9.02
2023-02-24T03:17:41.583Z,8.93
2023-02-24T03:20:49.615Z,4.05
2023-02-24T03:23:57.585Z,4.78
2023-02-24T03:27:10.315Z,7.97
2023-02-24T03:30:18.947Z,8.48
2023-02-24T03:33:29.909Z,10.45
2023-02-24T03:36:35.931Z,7.25
2023-02-24T03:39:43.443Z,13.68
2023-02-24T03:42:50.903Z,9.18
2023-02-24T03:45:55.837Z,7.53
2023-02-24T03:49:06.201Z,5.57
2023-02-24T03:52:14.039Z,7.53
2023-02-24T03:55:28.863Z,10.07
2023-02-24T03:58:39.780Z,7.07
2023-02-24T04:01:49.152Z,8.52
2023-02-24T04:04:58.573Z,7.82
2023-02-24T04:08:05.290Z,7.72
2023-02-24T04:11:17.135Z,11.75
2023-02-24T04:14:25.111Z,3.55
2023-02-24T04:17:35.337Z,8.48
2023-02-24T04:20:41.318Z,5.32
2023-02-24T04:23:47.984Z,5.93
2023-02-24T04:26:59.411Z,4.63
2023-02-24T04:30:05.029Z,8.80
2023-02-24T04:33:10.387Z,10.15
2023-02-24T04:36:15.609Z,6.43
2023-02-24T04:39:23.554Z,8.75
2023-02-24T04:42:32.690Z,5.43
2023-02-24T04:45:42.705Z,7.50
2023-02-24T04:48:47.780Z,8.57
2023-02-24T04:51:53.550Z,9.77
2023-02-24T04:54:58.619Z,14.70
2023-02-24T04:58:07.767Z,4.65
2023-02-24T05:01:13.397Z,10.13
2023-02-24T05:04:18.785Z,7.57
2023-02-24T05:07:26.632Z,9.25
2023-02-24T05:10:33.534Z,8.75
2023-02-24T05:13:41.555Z,11.57
2023-02-24T05:16:48.443Z,6.88
2023-02-24T05:20:05.580Z,9.13
2023-02-24T05:23:11.641Z,4.32
2023-02-24T05:26:20.052Z,5.28
2023-02-24T05:29:28.512Z,9.43
2023-02-24T05:32:34.775Z,11.82
2023-02-24T05:35:40.645Z,10.93
2023-02-24T05:38:46.061Z,8.63
2023-02-24T05:41:54.866Z,10.60
2023-02-24T05:45:02.386Z,7.85
2023-02-24T05:48:08.125Z,7.43
2023-02-24T05:51:13.570Z,6.50
2023-02-24T05:54:18.652Z,8.13
2023-02-24T05:57:26.010Z,3.85
2023-02-24T06:00:39.147Z,6.32
2023-02-24T06:03:46.872Z,14.50
2023-02-24T06:06:53.141Z,10.82
2023-02-24T06:10:00.412Z,6.10
2023-02-24T06:13:06.934Z,6.18
2023-02-24T06:16:15.479Z,9.40
2023-02-24T06:19:21.633Z,5.88
2023-02-24T06:22:27.641Z,6.63
2023-02-24T06:25:33.615Z,12.70
2023-02-24T06:28:38.464Z,6.85
2023-02-24T06:31:48.786Z,13.73
2023-02-24T06:34:54.634Z,6.78
2023-02-24T06:37:59.779Z,7.55
2023-02-24T06:41:11.019Z,14.18
2023-02-24T06:44:16.207Z,7.93
2023-02-24T06:47:23.573Z,6.13
2023-02-24T06:50:28.956Z,4.80
2023-02-24T06:53:34.973Z,8.50
2023-02-24T06:56:41.919Z,5.93
2023-02-24T06:59:49.143Z,9.57
2023-02-24T07:02:57.053Z,6.88
2023-02-24T07:06:15.854Z,9.10
2023-02-24T07:09:22.629Z,8.50
2023-02-24T07:12:27.519Z,8.57
2023-02-24T07:15:32.714Z,5.13
2023-02-24T07:18:41.771Z,7.68
2023-02-24T07:21:50.328Z,6.38
2023-02-24T07:25:00.744Z,5.85
2023-02-24T07:28:07.593Z,11.60
2023-02-24T07:31:13.459Z,5.65
2023-02-24T07:34:24.699Z,9.65
2023-02-24T07:37:31.987Z,7.05
2023-02-24T07:40:38.505Z,9.07
2023-02-24T07:43:44.257Z,8.05
2023-02-24T07:46:50.668Z,10.85
2023-02-24T07:49:58.076Z,7.88
2023-02-24T07:53:05.814Z,8.43
2023-02-24T07:56:14.416Z,5.88
2023-02-24T07:59:22.108Z,10.48
2023-02-24T08:02:26.987Z,6.50
2023-02-24T08:05:36.854Z,4.15
2023-02-24T08:08:58.017Z,6.47
2023-02-24T08:12:03.950Z,7.85
2023-02-24T08:15:17.582Z,6.82
2023-02-24T08:18:23.331Z,10.93
2023-02-24T08:21:38.224Z,4.30
2023-02-24T08:24:43.735Z,8.13
2023-02-24T08:28:07.337Z,10.38
2023-02-24T08:31:14.967Z,12.77
2023-02-24T08:34:21.027Z,6.63
2023-02-24T08:37:33.527Z,6.30
2023-02-24T08:40:50.432Z,6.55
2023-02-24T08:43:55.653Z,3.70
2023-02-24T08:47:02.289Z,5.47
2023-02-24T08:50:08.268Z,7.00
2023-02-24T08:53:19.396Z,7.95
2023-02-24T08:56:26.873Z,9.07
2023-02-24T08:59:48.526Z,8.40
2023-02-24T09:02:56.325Z,7.90
2023-02-24T09:06:03.358Z,9.75
2023-02-24T09:09:21.475Z,9.18
2023-02-24T09:12:29.440Z,9.07
2023-02-24T09:15:41.585Z,7.50
2023-02-24T09:18:50.688Z,7.00
2023-02-24T09:22:21.105Z,4.90
2023-02-24T09:25:41.043Z,6.20
2023-02-24T09:28:55.037Z,7.68
2023-02-24T09:32:04.885Z,7.28
2023-02-24T09:35:10.860Z,11.52
2023-02-24T09:38:17.055Z,4.25
2023-02-24T09:41:33.192Z,7.75
2023-02-24T09:44:39.539Z,6.82
2023-02-24T09:47:57.235Z,8.40
2023-02-24T09:51:06.524Z,7.70
2023-02-24T09:54:16.739Z,4.22
2023-02-24T09:57:37.578Z,9.18
2023-02-24T10:00:45.656Z,5.60
2023-02-24T10:03:54.094Z,6.32
2023-02-24T10:07:08.704Z,7.43
2023-02-24T10:10:28.398Z,8.07
2023-02-24T10:13:38.313Z,6.90
2023-02-24T10:16:46.458Z,9.20
2023-02-24T10:19:56.646Z,8.93
2023-02-24T10:23:02.704Z,6.70
2023-02-24T10:26:09.146Z,5.82
2023-02-24T10:29:25.034Z,3.83
2023-02-24T10:32:36.740Z,4.20
2023-02-24T10:35:41.920Z,3.70
2023-02-24T10:38:50.821Z,5.20
2023-02-24T10:41:57.823Z,8.45
2023-02-24T10:45:19.065Z,6.38
2023-02-24T10:48:42.955Z,9.70
2023-02-24T10:51:51.375Z,2.72
2023-02-24T10:55:05.490Z,7.13
2023-02-24T10:58:27.885Z,6.13
2023-02-24T11:01:55.171Z,8.50
2023-02-24T11:05:27.226Z,5.80
2023-02-24T11:08:54.802Z,6.65
2023-02-24T11:12:14.343Z,5.00
2023-02-24T11:15:33.309Z,1.70
2023-02-24T11:18:41.723Z,9.38
2023-02-24T11:21:46.584Z,11.43
2023-02-24T11:24:53.301Z,12.35
2023-02-24T11:27:59.310Z,5.43
2023-02-24T11:31:09.091Z,9.40
2023-02-24T11:34:24.762Z,7.88
2023-02-24T11:37:36.126Z,7.95
2023-02-24T11:40:43.639Z,6.18
2023-02-24T11:43:53.571Z,4.38
2023-02-24T11:47:03.051Z,9.43
2023-02-24T11:50:23.692Z,6.13
2023-02-24T11:53:30.848Z,9.02
2023-02-24T11:56:37.206Z,6.13
2023-02-24T11:59:45.438Z,10.00
2023-02-24T12:02:55.249Z,5.22
2023-02-24T12:06:13.003Z,9.60
2023-02-24T12:09:20.105Z,14.82
2023-02-24T12:12:29.424Z,9.40
2023-02-24T12:15:39.233Z,4.40
2023-02-24T12:18:48.082Z,6.80
2023-02-24T12:21:59.098Z,7.22
2023-02-24T12:25:06.997Z,4.20
2023-02-24T12:28:18.569Z,5.35
2023-02-24T12:31:29.694Z,6.63
2023-02-24T12:34:43.096Z,4.30
2023-02-24T12:38:01.822Z,5.00
2023-02-24T12:41:14.546Z,6.43
2023-02-24T12:44:24.956Z,6.65
2023-02-24T12:47:35.776Z,5.75
2023-02-24T12:50:47.960Z,3.20
2023-02-24T12:53:59.564Z,6.45
2023-02-24T12:57:09.922Z,6.10
2023-02-24T13:00:19.736Z,6.50
2023-02-24T13:03:29.662Z,7.80
2023-02-24T13:06:40.571Z,8.63
2023-02-24T13:09:51.185Z,4.03
2023-02-24T13:12:58.621Z,7.82
2023-02-24T13:16:03.511Z,7.03
2023-02-24T13:19:09.768Z,11.07
2023-02-24T13:22:22.897Z,5.43
2023-02-24T13:25:32.549Z,7.68
2023-02-24T13:28:38.675Z,6.07
2023-02-24T13:31:45.591Z,5.93
2023-02-24T13:34:51.762Z,8.10
2023-02-24T13:37:57.450Z,5.40
2023-02-24T13:41:12.360Z,7.40
2023-02-24T13:44:25.664Z,8.68
2023-02-24T13:47:49.687Z,5.03
2023-02-24T13:51:04.207Z,7.32
2023-02-24T13:54:16.809Z,4.50
2023-02-24T13:57:37.381Z,5.00
2023-02-24T14:00:53.944Z,5.90
2023-02-24T14:04:08.675Z,2.95
2023-02-24T14:07:14.603Z,4.32
2023-02-24T14:10:20.694Z,10.63
2023-02-24T14:13:34.196Z,3.50
2023-02-24T14:16:42.033Z,2.40
2023-02-24T14:19:47.047Z,3.45
2023-02-24T14:22:53.336Z,3.03
2023-02-24T14:25:59.452Z,3.65
2023-02-24T14:29:10.254Z,3.72
2023-02-24T14:32:23.577Z,2.55
2023-02-24T14:35:31.646Z,6.43
2023-02-24T14:38:40.833Z,2.95
2023-02-24T14:41:46.235Z,6.35
2023-02-24T14:44:55.080Z,4.07
2023-02-24T14:48:00.321Z,3.75
2023-02-24T14:51:07.093Z,4.72
2023-02-24T14:54:17.060Z,3.97
2023-02-24T14:57:25.072Z,5.38
2023-02-24T15:00:34.922Z,5.15
2023-02-24T15:03:40.821Z,4.88
2023-02-24T15:06:46.516Z,5.28
2023-02-24T15:09:52.360Z,2.70
2023-02-24T15:13:00.851Z,2.58
2023-02-24T15:16:13.335Z,3.60
2023-02-24T15:19:27.370Z,5.30
2023-02-24T15:22:33.707Z,3.67
2023-02-24T15:25:45.462Z,6.32
2023-02-24T15:28:59.452Z,3.53
2023-02-24T15:32:08.100Z,2.28
2023-02-24T15:35:24.913Z,4.55
2023-02-24T15:38:32.572Z,4.35
2023-02-24T15:41:41.001Z,5.13
2023-02-24T15:44:54.368Z,4.50
2023-02-24T15:48:02.217Z,4.68
2023-02-24T15:51:08.031Z,4.82
2023-02-24T15:54:14.391Z,4.65
2023-02-24T15:57:20.424Z,3.65
2023-02-24T16:00:26.017Z,4.45
2023-02-24T16:03:33.828Z,4.60
2023-02-24T16:06:41.887Z,4.95
2023-02-24T16:09:49.554Z,4.78
2023-02-24T16:12:56.303Z,5.93
2023-02-24T16:16:10.592Z,5.57
2023-02-24T16:19:18.957Z,5.20
2023-02-24T16:22:24.117Z,6.25
2023-02-24T16:25:29.400Z,3.15
2023-02-24T16:28:34.852Z,6.75
2023-02-24T16:31:40.643Z,4.53
2023-02-24T16:34:48.481Z,6.22
2023-02-24T16:37:53.269Z,5.30
2023-02-24T16:40:58.441Z,6.95
2023-02-24T16:44:04.037Z,4.47
2023-02-24T16:47:10.224Z,4.95
2023-02-24T16:50:24.272Z,5.35
2023-02-24T16:53:29.777Z,7.50
2023-02-24T16:56:34.545Z,4.32
2023-02-24T16:59:42.068Z,6.88
2023-02-24T17:02:47.816Z,5.43
2023-02-24T17:05:55.790Z,4.45
2023-02-24T17:09:00.680Z,8.80
2023-02-24T17:12:06.169Z,7.28
2023-02-24T17:15:12.075Z,6.47
2023-02-24T17:18:17.252Z,6.32
2023-02-24T17:21:24.974Z,7.90
2023-02-24T17:24:30.157Z,9.50
2023-02-24T17:27:34.950Z,7.20
2023-02-24T17:30:40.360Z,7.47
2023-02-24T17:33:45.293Z,8.77
2023-02-24T17:36:53.198Z,7.65
2023-02-24T17:39:58.069Z,8.35
2023-02-24T17:43:03.365Z,12.68
2023-02-24T17:46:08.423Z,7.80
2023-02-24T17:49:13.616Z,6.18
2023-02-24T17:52:21.213Z,10.57
2023-02-24T17:55:26.464Z,15.73
2023-02-24T17:58:31.222Z,8.70
2023-02-24T18:01:36.401Z,11.73
2023-02-24T18:04:41.343Z,8.10
2023-02-24T18:07:49.083Z,9.40
2023-02-24T18:10:54.270Z,11.02
2023-02-24T18:14:00.600Z,13.30
2023-02-24T18:17:05.538Z,6.50
2023-02-24T18:20:12.333Z,12.07
2023-02-24T18:23:20.796Z,14.07
2023-02-24T18:26:26.480Z,13.10
2023-02-24T18:29:31.444Z,15.43
2023-02-24T18:32:43.321Z,16.13
2023-02-24T18:35:48.245Z,14.88
2023-02-24T18:38:56.351Z,13.00
2023-02-24T18:42:01.107Z,8.57
2023-02-24T18:45:06.693Z,11.98
2023-02-24T18:48:11.538Z,13.80
2023-02-24T18:51:17.289Z,9.82
2023-02-24T18:54:24.789Z,11.82
2023-02-24T18:57:29.990Z,9.88
2023-02-24T19:00:34.779Z,18.75
2023-02-24T19:03:39.912Z,11.30
2023-02-24T19:06:49.045Z,12.93
2023-02-24T19:09:56.858Z,11.80
2023-02-24T19:13:01.655Z,12.77
2023-02-24T19:16:07.486Z,11.27
2023-02-24T19:19:14.570Z,10.75
2023-02-24T19:22:19.756Z,12.63
2023-02-24T19:25:27.145Z,12.13
2023-02-24T19:28:32.491Z,15.85
2023-02-24T19:31:37.418Z,13.90
2023-02-24T19:34:43.596Z,10.80
2023-02-24T19:37:50.479Z,14.88
2023-02-24T19:41:00.296Z,13.50
2023-02-24T19:44:05.115Z,12.45
2023-02-24T19:47:10.306Z,13.07
2023-02-24T19:50:15.405Z,13.73
2023-02-24T19:53:20.738Z,14.88
2023-02-24T19:56:29.268Z,11.18
2023-02-24T19:59:34.432Z,12.63
2023-02-24T20:02:39.713Z,16.30
2023-02-24T20:05:44.987Z,14.10
2023-02-24T20:08:49.864Z,13.38
2023-02-24T20:11:59.177Z,13.88
2023-02-24T20:15:04.202Z,11.95
2023-02-24T20:18:09.337Z,14.20
2023-02-24T20:21:14.922Z,14.93
2023-02-24T20:24:20.388Z,12.65
2023-02-24T20:27:28.036Z,19.20
2023-02-24T20:30:33.270Z,12.43
2023-02-24T20:33:38.260Z,12.90
2023-02-24T20:36:43.945Z,11.15
2023-02-24T20:39:48.860Z,14.98
2023-02-24T20:42:56.709Z,16.80
2023-02-24T20:46:01.612Z,10.38
2023-02-24T20:49:08.814Z,14.50
2023-02-24T20:52:14.214Z,13.43
2023-02-24T20:55:19.858Z,15.25
2023-02-24T20:58:28.332Z,12.32
2023-02-24T21:01:33.923Z,16.90
2023-02-24T21:04:42.741Z,16.02
2023-02-24T21:07:47.860Z,15.10
2023-02-24T21:10:52.714Z,15.95
2023-02-24T21:14:00.722Z,16.83
2023-02-24T21:17:05.534Z,13.23
2023-02-24T21:20:12.675Z,12.13
2023-02-24T21:23:17.557Z,16.48
2023-02-24T21:26:23.432Z,9.93
2023-02-24T21:29:31.045Z,18.67
2023-02-24T21:32:36.504Z,13.40
2023-02-24T21:35:41.406Z,18.20
2023-02-24T21:38:48.549Z,12.90
2023-02-24T21:41:53.433Z,15.07
2023-02-24T21:45:02.539Z,12.65
2023-02-24T21:48:07.366Z,16.70
2023-02-24T21:51:13.034Z,14.07
2023-02-24T21:54:18.060Z,14.63
2023-02-24T21:57:23.437Z,10.00
2023-02-24T22:00:30.929Z,12.35
2023-02-24T22:03:37.865Z,16.13
2023-02-24T22:06:44.723Z,17.67
2023-02-24T22:09:52.253Z,17.83
2023-02-24T22:12:58.861Z,17.50
2023-02-24T22:16:07.172Z,16.77
2023-02-24T22:19:12.035Z,15.65
2023-02-24T22:22:17.240Z,19.23
2023-02-24T22:25:22.030Z,17.67
2023-02-24T22:28:30.082Z,15.23
2023-02-24T22:31:39.688Z,15.98
2023-02-24T22:34:45.029Z,12.80
2023-02-24T22:37:49.790Z,15.82
2023-02-24T22:41:01.780Z,13.85
2023-02-24T22:44:08.214Z,13.63
2023-02-24T22:47:16.994Z,17.15
2023-02-24T22:50:21.842Z,15.52
2023-02-24T22:53:28.106Z,16.85
2023-02-24T22:56:33.174Z,16.27
2023-02-24T22:59:38.311Z,16.48
2023-02-24T23:02:45.792Z,16.00
2023-02-24T23:05:56.925Z,17.20
2023-02-24T23:09:02.366Z,17.85
2023-02-24T23:12:11.636Z,17.50
2023-02-24T23:15:17.307Z,17.83
2023-02-24T23:18:25.153Z,18.95
2023-02-24T23:21:30.850Z,20.45
2023-02-24T23:24:36.252Z,17.83
2023-02-24T23:27:41.330Z,20.70
2023-02-24T23:30:46.540Z,17.88
2023-02-24T23:33:54.948Z,18.77
2023-02-24T23:37:00.101Z,18.85
2023-02-24T23:40:08.116Z,23.30
2023-02-24T23:43:13.747Z,24.13
2023-02-24T23:46:18.595Z,20.77
2023-02-24T23:49:36.159Z,19.25
2023-02-24T23:52:47.379Z,22.33
2023-02-24T23:55:53.124Z,17.42
2023-02-24T23:58:58.960Z,16.30
